Time;durP1;ratioP1;P1;durP2;ratioP2;P2;SDS_P1;SDS_P2;PMS_P1;PMS_P2;Temp;Humidity;BMP_temperature;BMP_pressure;BME280_temperature;BME280_humidity;BME280_pressure;Samples;Min_cycle;Max_cycle;Signal;HPM_P1;HPM_P2
2022/07/10 00:00:26;;;;;;;8.57;1.83;;;13.80;99.90;;;;;;4992783;28;20204;-56
2022/07/10 00:02:54;;;;;;;10.90;1.80;;;13.80;99.90;;;;;;4985177;28;20963;-57
2022/07/10 00:05:21;;;;;;;3.53;1.30;;;13.80;99.90;;;;;;4990665;28;20554;-57
2022/07/10 00:07:48;;;;;;;8.73;1.90;;;13.80;99.90;;;;;;4990283;28;20459;-57
2022/07/10 00:10:14;;;;;;;8.33;1.57;;;13.80;99.90;;;;;;4992502;28;20770;-57
2022/07/10 00:12:39;;;;;;;5.47;1.50;;;13.80;99.90;;;;;;4991338;28;20458;-55
2022/07/10 00:15:06;;;;;;;11.73;1.70;;;13.70;99.90;;;;;;4992343;28;20415;-57
2022/07/10 00:17:32;;;;;;;5.43;1.50;;;13.70;99.90;;;;;;4991577;28;20192;-57
2022/07/10 00:19:58;;;;;;;6.47;1.90;;;13.70;99.90;;;;;;4990707;28;20439;-55
2022/07/10 00:22:24;;;;;;;4.90;1.60;;;13.80;99.90;;;;;;4990706;28;20439;-58
2022/07/10 00:24:52;;;;;;;5.87;1.90;;;13.80;99.90;;;;;;4990094;28;20435;-57
2022/07/10 00:27:18;;;;;;;8.67;1.43;;;13.70;99.90;;;;;;4988615;28;20262;-57
2022/07/10 00:29:45;;;;;;;6.53;1.50;;;13.70;99.90;;;;;;4990589;28;20467;-54
2022/07/10 00:32:10;;;;;;;8.10;1.43;;;13.80;99.90;;;;;;4973399;28;20181;-57
2022/07/10 00:34:36;;;;;;;3.40;1.20;;;13.70;99.90;;;;;;4982233;28;20475;-56
2022/07/10 00:37:03;;;;;;;7.57;1.63;;;13.80;99.90;;;;;;4986507;28;20200;-57
2022/07/10 00:39:29;;;;;;;3.83;1.43;;;13.80;99.90;;;;;;4989944;28;20941;-57
2022/07/10 00:41:55;;;;;;;4.40;1.40;;;13.80;99.90;;;;;;4989653;28;20631;-56
2022/07/10 00:44:20;;;;;;;4.53;1.30;;;13.80;99.90;;;;;;4983552;28;20201;-57
2022/07/10 00:46:46;;;;;;;3.40;1.47;;;13.70;99.90;;;;;;4971502;28;20923;-54
2022/07/10 00:49:12;;;;;;;7.40;2.23;;;13.70;99.90;;;;;;4981782;28;20188;-57
2022/07/10 00:51:38;;;;;;;6.90;2.90;;;13.60;99.90;;;;;;4980641;28;20193;-57
2022/07/10 00:54:05;;;;;;;3.27;1.50;;;13.50;99.90;;;;;;4977343;28;20268;-56
2022/07/10 00:56:31;;;;;;;6.60;1.47;;;13.50;99.90;;;;;;4988975;28;20526;-56
2022/07/10 00:58:57;;;;;;;14.23;2.43;;;13.50;99.90;;;;;;4987945;28;20502;-57
2022/07/10 01:01:23;;;;;;;8.67;1.80;;;13.40;99.90;;;;;;4991579;28;20415;-55
2022/07/10 01:03:49;;;;;;;4.17;1.27;;;13.40;99.90;;;;;;4990996;28;21190;-57
2022/07/10 01:06:16;;;;;;;5.20;1.40;;;13.40;99.90;;;;;;4991841;28;20474;-57
2022/07/10 01:08:43;;;;;;;6.47;1.60;;;13.50;99.90;;;;;;4987155;28;20191;-57
2022/07/10 01:11:10;;;;;;;4.70;1.30;;;13.50;99.90;;;;;;4991404;28;20422;-57
2022/07/10 01:13:39;;;;;;;3.57;1.10;;;13.50;99.90;;;;;;4989646;28;20933;-57
2022/07/10 01:16:05;;;;;;;5.80;1.60;;;13.50;99.90;;;;;;4988733;28;20548;-57
2022/07/10 01:18:30;;;;;;;9.03;1.90;;;13.50;99.90;;;;;;4990646;28;21369;-56
2022/07/10 01:20:56;;;;;;;8.90;1.80;;;13.50;99.90;;;;;;4974256;28;20500;-57
2022/07/10 01:23:23;;;;;;;4.77;1.23;;;13.50;99.90;;;;;;4976768;28;20350;-57
2022/07/10 01:25:49;;;;;;;6.07;1.80;;;13.50;99.90;;;;;;4982547;28;20180;-56
2022/07/10 01:28:20;;;;;;;8.40;1.30;;;13.40;99.90;;;;;;4978100;28;20442;-56
2022/07/10 01:30:46;;;;;;;4.80;1.30;;;13.40;99.90;;;;;;4990897;28;20430;-57
2022/07/10 01:33:11;;;;;;;4.40;1.40;;;13.40;99.90;;;;;;4990400;28;20431;-57
2022/07/10 01:35:37;;;;;;;5.67;1.30;;;13.40;99.90;;;;;;4986368;28;20232;-57
2022/07/10 01:38:03;;;;;;;4.80;1.30;;;13.30;99.90;;;;;;4988417;28;20195;-57
2022/07/10 01:40:29;;;;;;;5.33;1.23;;;13.30;99.90;;;;;;4988950;28;20474;-57
2022/07/10 01:42:54;;;;;;;5.10;1.70;;;13.20;99.90;;;;;;4987790;28;20199;-57
2022/07/10 01:45:20;;;;;;;9.50;1.63;;;13.20;99.90;;;;;;4984198;28;20199;-57
2022/07/10 01:47:46;;;;;;;2.90;1.40;;;13.20;99.90;;;;;;4988933;28;20701;-57
2022/07/10 01:50:11;;;;;;;4.20;1.63;;;13.20;99.90;;;;;;4989766;28;20184;-55
2022/07/10 01:52:37;;;;;;;6.23;1.50;;;13.20;99.90;;;;;;4988166;28;20189;-57
2022/07/10 01:55:04;;;;;;;4.40;1.50;;;13.20;99.90;;;;;;4989507;28;20227;-56
2022/07/10 01:57:30;;;;;;;5.13;1.53;;;13.20;99.90;;;;;;4989473;28;20200;-57
2022/07/10 01:59:56;;;;;;;9.00;1.47;;;13.20;99.90;;;;;;4993698;28;20976;-57
2022/07/10 02:02:22;;;;;;;4.80;1.40;;;13.20;99.90;;;;;;4991858;28;20200;-57
2022/07/10 02:04:47;;;;;;;3.90;1.40;;;13.20;99.90;;;;;;4991846;28;20777;-57
2022/07/10 02:07:15;;;;;;;7.27;1.60;;;13.20;99.90;;;;;;4991858;28;20689;-57
2022/07/10 02:09:42;;;;;;;5.10;1.33;;;13.10;99.90;;;;;;4974928;28;20665;-57
2022/07/10 02:12:09;;;;;;;3.53;1.23;;;13.20;99.90;;;;;;4992947;28;20454;-56
2022/07/10 02:14:35;;;;;;;3.77;1.47;;;13.20;99.90;;;;;;4979987;28;20439;-57
2022/07/10 02:17:01;;;;;;;6.60;1.73;;;13.20;99.90;;;;;;4992279;28;20447;-57
2022/07/10 02:19:27;;;;;;;8.37;2.00;;;13.20;99.90;;;;;;4992710;28;20839;-56
2022/07/10 02:21:52;;;;;;;17.97;1.77;;;13.20;99.90;;;;;;4994287;28;20200;-57
2022/07/10 02:24:18;;;;;;;7.17;1.80;;;13.20;99.90;;;;;;4985904;28;20873;-51
2022/07/10 02:26:44;;;;;;;7.10;1.73;;;13.20;99.90;;;;;;4993185;28;20576;-51
2022/07/10 02:29:09;;;;;;;6.77;2.00;;;13.20;99.90;;;;;;4992550;28;20199;-52
2022/07/10 02:31:40;;;;;;;5.77;1.70;;;13.20;99.90;;;;;;4992677;28;20198;-52
2022/07/10 02:34:07;;;;;;;7.67;1.50;;;13.30;99.90;;;;;;4993247;28;20184;-51
2022/07/10 02:36:32;;;;;;;9.03;1.60;;;13.30;99.90;;;;;;4993290;28;20439;-51
2022/07/10 02:38:58;;;;;;;9.50;1.87;;;13.30;99.90;;;;;;4991390;28;20450;-51
2022/07/10 02:41:24;;;;;;;8.30;2.07;;;13.30;99.90;;;;;;4992622;28;20278;-51
2022/07/10 02:43:49;;;;;;;5.37;1.97;;;13.20;99.90;;;;;;4991391;28;20192;-51
2022/07/10 02:46:15;;;;;;;5.03;1.50;;;13.20;99.90;;;;;;4991970;28;20342;-51
2022/07/10 02:48:41;;;;;;;8.50;1.57;;;13.20;99.90;;;;;;4992408;28;20189;-51
2022/07/10 02:51:06;;;;;;;6.77;2.10;;;13.10;99.90;;;;;;4989631;28;20196;-51
2022/07/10 02:53:32;;;;;;;7.43;1.80;;;13.20;99.90;;;;;;4992654;28;20689;-61
2022/07/10 02:55:58;;;;;;;12.30;2.80;;;13.20;99.90;;;;;;4992975;28;20270;-51
2022/07/10 02:58:23;;;;;;;7.87;1.80;;;13.20;99.90;;;;;;4992568;28;20180;-51
2022/07/10 03:00:49;;;;;;;4.00;1.60;;;13.20;99.90;;;;;;4986440;28;20185;-52
2022/07/10 03:03:17;;;;;;;11.33;1.80;;;13.20;99.90;;;;;;4986079;28;20185;-51
2022/07/10 03:05:43;;;;;;;7.63;2.30;;;13.20;99.90;;;;;;4992188;28;20184;-52
2022/07/10 03:08:09;;;;;;;20.57;2.70;;;13.20;99.90;;;;;;4990667;28;20465;-51
2022/07/10 03:10:35;;;;;;;16.00;2.37;;;13.20;99.90;;;;;;4991567;28;20439;-51
2022/07/10 03:13:01;;;;;;;9.20;2.60;;;13.20;99.90;;;;;;4992886;28;20172;-56
2022/07/10 03:15:27;;;;;;;11.60;3.10;;;13.20;99.90;;;;;;4992388;28;20423;-57
2022/07/10 03:17:52;;;;;;;7.07;2.13;;;13.10;99.90;;;;;;4990376;28;20600;-57
2022/07/10 03:20:18;;;;;;;10.57;2.27;;;13.20;99.90;;;;;;4988821;28;20203;-56
2022/07/10 03:22:44;;;;;;;7.10;2.00;;;13.20;99.90;;;;;;4986952;28;20673;-57
2022/07/10 03:25:10;;;;;;;8.00;2.30;;;13.30;99.90;;;;;;4993245;28;20204;-56
2022/07/10 03:27:35;;;;;;;10.40;2.07;;;13.30;99.90;;;;;;4991081;28;20489;-56
2022/07/10 03:30:01;;;;;;;13.97;3.60;;;13.20;99.90;;;;;;4990841;28;20267;-56
2022/07/10 03:32:27;;;;;;;9.80;2.60;;;13.30;99.90;;;;;;4992406;28;20199;-54
2022/07/10 03:34:52;;;;;;;9.23;2.63;;;13.30;99.90;;;;;;4979732;28;20192;-56
2022/07/10 03:37:18;;;;;;;13.23;2.80;;;13.40;99.90;;;;;;4991053;28;20188;-57
2022/07/10 03:39:43;;;;;;;10.30;2.50;;;13.40;99.90;;;;;;4989983;28;20204;-57
2022/07/10 03:42:09;;;;;;;10.57;2.33;;;13.40;99.90;;;;;;4992021;28;20188;-57
2022/07/10 03:44:35;;;;;;;12.63;3.03;;;13.40;99.90;;;;;;4985973;28;20323;-57
2022/07/10 03:47:02;;;;;;;8.90;2.63;;;13.50;99.90;;;;;;4992086;28;20573;-57
2022/07/10 03:49:27;;;;;;;9.87;2.67;;;13.40;99.90;;;;;;4991763;28;20872;-56
2022/07/10 03:51:54;;;;;;;10.50;2.33;;;13.40;99.90;;;;;;4992095;28;20525;-57
2022/07/10 03:54:19;;;;;;;11.73;2.67;;;13.50;99.90;;;;;;4983875;28;20275;-57
2022/07/10 03:59:29;;;;;;;21.67;2.97;;;13.50;99.90;;;;;;4983257;28;20212;-57
2022/07/10 04:01:55;;;;;;;12.60;2.60;;;13.50;99.90;;;;;;4991436;28;20439;-57
2022/07/10 04:04:20;;;;;;;6.53;2.50;;;13.50;99.90;;;;;;4989710;28;20211;-57
2022/07/10 04:06:46;;;;;;;16.40;3.47;;;13.60;99.90;;;;;;4991826;28;20239;-57
2022/07/10 04:09:12;;;;;;;15.83;2.80;;;13.60;99.90;;;;;;4990124;28;21136;-57
2022/07/10 04:11:37;;;;;;;11.90;2.73;;;13.70;99.90;;;;;;4992003;28;20176;-57
2022/07/10 04:14:03;;;;;;;9.77;2.67;;;13.70;99.90;;;;;;4972948;28;20670;-57
2022/07/10 04:16:29;;;;;;;11.80;2.50;;;13.70;99.90;;;;;;4991708;28;20200;-56
2022/07/10 04:18:54;;;;;;;15.33;3.17;;;13.80;99.90;;;;;;4990997;28;20184;-55
2022/07/10 04:21:20;;;;;;;11.77;2.80;;;13.80;99.90;;;;;;4988906;28;20534;-57
2022/07/10 04:23:45;;;;;;;20.03;3.53;;;13.80;99.90;;;;;;4988856;28;20200;-56
2022/07/10 04:26:11;;;;;;;10.57;2.80;;;13.80;99.90;;;;;;4988857;28;20196;-57
2022/07/10 04:28:37;;;;;;;15.33;3.43;;;13.80;99.90;;;;;;4990323;28;20263;-56
2022/07/10 04:31:02;;;;;;;13.83;2.90;;;13.90;99.90;;;;;;4987650;28;20530;-56
2022/07/10 04:33:28;;;;;;;17.73;3.70;;;13.90;99.90;;;;;;4990990;28;20196;-57
2022/07/10 04:35:53;;;;;;;11.90;2.80;;;14.00;99.90;;;;;;4989275;28;21007;-57
2022/07/10 04:38:19;;;;;;;15.63;3.97;;;14.00;99.90;;;;;;4991064;28;20200;-57
2022/07/10 04:40:45;;;;;;;17.57;3.90;;;13.90;99.90;;;;;;4986817;28;20260;-56
2022/07/10 04:43:11;;;;;;;14.20;3.40;;;13.90;99.90;;;;;;4988489;28;20200;-57
2022/07/10 04:45:40;;;;;;;13.33;3.50;;;13.90;99.90;;;;;;4968250;28;20199;-57
2022/07/10 04:48:05;;;;;;;18.73;3.30;;;13.90;99.90;;;;;;4980707;28;20469;-57
2022/07/10 04:50:31;;;;;;;16.13;3.23;;;14.00;99.90;;;;;;4988422;28;20435;-57
2022/07/10 04:52:57;;;;;;;19.87;3.93;;;14.10;99.90;;;;;;4973838;28;20195;-53
2022/07/10 04:55:23;;;;;;;20.97;3.50;;;14.10;99.90;;;;;;4988966;28;20303;-57
2022/07/10 04:57:49;;;;;;;16.60;3.40;;;14.20;99.90;;;;;;4989776;28;20447;-56
2022/07/10 05:00:15;;;;;;;15.83;3.37;;;14.30;99.90;;;;;;4989172;28;20196;-54
2022/07/10 05:02:41;;;;;;;11.13;2.47;;;14.40;99.90;;;;;;4988392;28;20246;-57
2022/07/10 05:05:07;;;;;;;23.10;3.80;;;14.40;99.90;;;;;;4990594;28;20451;-55
2022/07/10 05:07:32;;;;;;;18.37;3.73;;;14.40;99.90;;;;;;4986492;28;20298;-57
2022/07/10 05:09:58;;;;;;;16.10;3.50;;;14.40;99.90;;;;;;4989902;28;20483;-57
2022/07/10 05:12:23;;;;;;;18.00;3.10;;;14.40;99.90;;;;;;4973459;28;20192;-57
2022/07/10 05:14:49;;;;;;;12.23;3.30;;;14.50;99.90;;;;;;4987897;28;20207;-57
2022/07/10 05:17:15;;;;;;;15.90;3.50;;;14.40;99.90;;;;;;4989706;28;20230;-55
2022/07/10 05:19:40;;;;;;;14.37;3.53;;;14.40;99.90;;;;;;4989767;28;20218;-55
2022/07/10 05:22:07;;;;;;;16.10;3.60;;;14.40;99.90;;;;;;4987475;28;20199;-56
2022/07/10 05:24:33;;;;;;;15.83;4.13;;;14.40;99.90;;;;;;4989070;28;20191;-56
2022/07/10 05:26:58;;;;;;;12.07;3.23;;;14.50;99.90;;;;;;4990382;28;20475;-56
2022/07/10 05:29:24;;;;;;;14.07;3.20;;;14.70;99.90;;;;;;4970921;28;20219;-56
2022/07/10 05:31:49;;;;;;;16.17;3.10;;;14.80;99.90;;;;;;4989004;28;20188;-56
2022/07/10 05:34:15;;;;;;;14.03;2.90;;;14.80;99.90;;;;;;4988897;28;20258;-56
2022/07/10 05:36:41;;;;;;;13.00;3.20;;;14.80;99.90;;;;;;4982431;28;20650;-56
2022/07/10 05:39:06;;;;;;;14.83;3.10;;;14.80;99.90;;;;;;4988709;28;20201;-57
2022/07/10 05:41:32;;;;;;;15.50;3.50;;;14.70;99.90;;;;;;4989632;28;20228;-53
2022/07/10 05:43:59;;;;;;;23.47;4.33;;;14.70;99.90;;;;;;4988295;28;20195;-57
2022/07/10 05:46:25;;;;;;;18.40;2.80;;;14.70;99.90;;;;;;4986089;28;20475;-56
2022/07/10 05:48:50;;;;;;;18.53;3.10;;;14.70;99.90;;;;;;4990386;28;20431;-55
2022/07/10 05:51:16;;;;;;;13.57;2.87;;;14.70;99.90;;;;;;4989610;28;20252;-56
2022/07/10 05:53:42;;;;;;;10.50;3.43;;;14.90;99.90;;;;;;4987996;28;20216;-55
2022/07/10 05:56:07;;;;;;;19.90;4.23;;;15.00;99.90;;;;;;4989013;28;20232;-57
2022/07/10 05:58:33;;;;;;;15.60;3.03;;;15.10;99.90;;;;;;4988607;28;20200;-54
2022/07/10 06:00:59;;;;;;;12.87;3.10;;;15.20;99.90;;;;;;4990375;28;20302;-57
2022/07/10 06:03:25;;;;;;;9.87;3.20;;;15.20;99.90;;;;;;4988756;28;20196;-57
2022/07/10 06:05:50;;;;;;;9.97;2.77;;;15.30;99.90;;;;;;4987332;28;20188;-57
2022/07/10 06:08:16;;;;;;;9.90;2.70;;;15.20;99.90;;;;;;4990215;28;20216;-57
2022/07/10 06:10:43;;;;;;;12.67;2.63;;;15.30;99.90;;;;;;4988284;28;20184;-56
2022/07/10 06:13:10;;;;;;;14.77;3.30;;;15.40;99.90;;;;;;4989765;28;20227;-56
2022/07/10 06:15:36;;;;;;;16.83;3.20;;;15.50;99.90;;;;;;4988851;28;20432;-54
2022/07/10 06:18:02;;;;;;;14.73;3.40;;;15.70;99.90;;;;;;4990102;28;21069;-57
2022/07/10 06:20:28;;;;;;;13.10;2.90;;;15.70;99.90;;;;;;4989470;28;20540;-57
2022/07/10 06:22:53;;;;;;;18.70;2.90;;;15.80;99.90;;;;;;4989203;28;20802;-57
2022/07/10 06:25:19;;;;;;;9.80;2.47;;;15.80;99.90;;;;;;4987533;28;20200;-56
2022/07/10 06:27:44;;;;;;;9.17;2.53;;;15.90;99.90;;;;;;4987251;28;20596;-57
2022/07/10 06:30:10;;;;;;;17.43;3.07;;;15.90;99.90;;;;;;4983224;28;20196;-57
2022/07/10 06:32:36;;;;;;;19.40;2.97;;;16.00;99.90;;;;;;4989549;28;20558;-57
2022/07/10 06:35:03;;;;;;;15.63;2.67;;;16.10;99.90;;;;;;4988922;28;20212;-57
2022/07/10 06:37:30;;;;;;;10.03;3.30;;;16.10;99.90;;;;;;4989585;28;20185;-57
2022/07/10 06:39:55;;;;;;;14.50;3.20;;;16.10;99.90;;;;;;4988020;28;20514;-57
2022/07/10 06:42:21;;;;;;;13.30;2.67;;;16.00;99.90;;;;;;4986222;28;20431;-57
2022/07/10 06:44:47;;;;;;;12.53;2.60;;;15.80;99.90;;;;;;4987854;28;20188;-57
2022/07/10 06:49:59;;;;;;;13.83;2.60;;;15.80;99.90;;;;;;4992634;28;20243;-57
2022/07/10 06:52:25;;;;;;;15.07;2.90;;;16.10;99.90;;;;;;4991628;28;20449;-56
2022/07/10 06:54:52;;;;;;;9.60;2.37;;;16.30;99.90;;;;;;4987686;28;20480;-57
2022/07/10 06:57:19;;;;;;;22.97;3.67;;;16.60;99.90;;;;;;4991791;28;20439;-57
2022/07/10 06:59:45;;;;;;;14.93;2.30;;;16.90;99.90;;;;;;4991517;28;20802;-56
2022/07/10 07:02:11;;;;;;;11.30;2.60;;;17.10;99.90;;;;;;4991861;28;20439;-56
2022/07/10 07:04:36;;;;;;;14.27;2.70;;;17.20;99.90;;;;;;4992484;28;20446;-57
2022/07/10 07:07:03;;;;;;;11.90;2.70;;;17.40;99.90;;;;;;4991458;28;20204;-56
2022/07/10 07:09:28;;;;;;;11.03;2.03;;;17.70;99.90;;;;;;4992694;28;20682;-55
2022/07/10 07:11:54;;;;;;;11.93;2.83;;;17.60;99.90;;;;;;4992463;28;20581;-57
2022/07/10 07:14:20;;;;;;;18.90;2.93;;;17.80;99.90;;;;;;4990022;28;20184;-57
2022/07/10 07:16:56;;;;;;;14.17;3.17;;;18.10;99.90;;;;;;4992030;28;20192;-57
2022/07/10 07:19:30;;;;;;;13.03;2.23;;;18.10;99.90;;;;;;4993079;28;20196;-57
2022/07/10 07:24:40;;;;;;;7.73;2.33;;;18.20;99.90;;;;;;4989176;28;20450;-56
2022/07/10 07:27:06;;;;;;;10.23;2.57;;;18.10;99.90;;;;;;4984695;28;20475;-57
2022/07/10 07:29:32;;;;;;;7.63;2.60;;;18.00;99.90;;;;;;4978312;28;20323;-56
2022/07/10 07:31:58;;;;;;;14.60;3.00;;;17.80;99.90;;;;;;4985311;28;20555;-57
2022/07/10 07:34:24;;;;;;;14.57;2.57;;;17.50;99.90;;;;;;4991939;28;20189;-55
2022/07/10 07:36:50;;;;;;;7.27;2.27;;;17.40;99.90;;;;;;4991227;28;20569;-56
2022/07/10 07:39:15;;;;;;;14.10;2.97;;;17.70;99.90;;;;;;4992167;28;20228;-58
2022/07/10 07:41:41;;;;;;;11.13;2.27;;;18.30;99.90;;;;;;4990671;28;20192;-57
2022/07/10 07:44:07;;;;;;;10.17;2.13;;;18.30;99.90;;;;;;4997622;28;20678;-57
2022/07/10 07:46:32;;;;;;;16.53;2.13;;;18.10;99.90;;;;;;4990274;28;21215;-57
2022/07/10 07:48:58;;;;;;;7.40;2.43;;;18.10;99.90;;;;;;4991553;28;20176;-57
2022/07/10 07:51:23;;;;;;;10.37;2.30;;;18.20;99.90;;;;;;4991597;28;20274;-57
2022/07/10 07:53:49;;;;;;;15.60;2.00;;;18.20;99.90;;;;;;4991678;28;20231;-64
2022/07/10 07:56:16;;;;;;;12.87;2.70;;;18.20;99.90;;;;;;4991459;28;20224;-57
2022/07/10 07:58:41;;;;;;;7.20;1.80;;;18.70;99.90;;;;;;4992237;28;20180;-57
2022/07/10 08:01:07;;;;;;;12.33;2.00;;;19.30;99.90;;;;;;4994002;28;20443;-57
2022/07/10 08:03:33;;;;;;;7.17;1.57;;;19.60;99.90;;;;;;4992457;28;20271;-57
2022/07/10 08:05:58;;;;;;;8.97;1.70;;;20.20;99.90;;;;;;4993544;28;20185;-55
2022/07/10 08:08:24;;;;;;;12.33;2.73;;;20.60;99.90;;;;;;4992793;28;20212;-57
2022/07/10 08:10:49;;;;;;;10.73;2.80;;;20.40;99.90;;;;;;4992288;28;20184;-57
2022/07/10 08:13:15;;;;;;;7.60;1.90;;;19.50;99.90;;;;;;4992467;28;20592;-57
2022/07/10 08:15:40;;;;;;;12.53;1.87;;;18.80;99.90;;;;;;4993419;28;20200;-57
2022/07/10 08:18:07;;;;;;;95.73;52.90;;;18.40;99.90;;;;;;4989552;28;20258;-57
2022/07/10 08:20:33;;;;;;;9.37;3.43;;;18.90;99.90;;;;;;4982082;28;20189;-57
2022/07/10 08:22:58;;;;;;;12.20;2.10;;;19.20;99.90;;;;;;4980763;28;20447;-57
2022/07/10 08:25:24;;;;;;;9.33;1.90;;;18.80;99.90;;;;;;4988382;28;20451;-57
2022/07/10 08:27:50;;;;;;;11.43;2.97;;;18.30;99.90;;;;;;4985519;28;20208;-57
2022/07/10 08:30:16;;;;;;;14.13;2.37;;;18.50;99.90;;;;;;4987175;28;20422;-57
2022/07/10 08:32:42;;;;;;;16.80;2.30;;;18.70;99.90;;;;;;4978492;28;20420;-57
2022/07/10 08:35:09;;;;;;;8.23;2.20;;;19.20;99.90;;;;;;4989159;28;20439;-57
2022/07/10 08:37:43;;;;;;;8.73;1.87;;;19.60;99.90;;;;;;4987926;28;20431;-57
2022/07/10 08:40:11;;;;;;;12.23;2.17;;;19.30;99.90;;;;;;4991128;28;20926;-57
2022/07/10 08:42:37;;;;;;;7.63;1.50;;;19.40;99.90;;;;;;4989037;28;20786;-58
2022/07/10 08:45:03;;;;;;;7.70;1.90;;;20.00;99.90;;;;;;4985720;28;20439;-56
2022/07/10 08:47:31;;;;;;;9.97;2.03;;;20.60;99.90;;;;;;4991053;28;20247;-54
2022/07/10 08:49:57;;;;;;;9.63;1.73;;;21.20;99.90;;;;;;4979434;28;20435;-56
2022/07/10 08:52:36;;;;;;;4.80;1.80;;;21.50;99.90;;;;;;4988345;28;20435;-58
2022/07/10 08:55:02;;;;;;;7.53;1.97;;;21.20;99.90;;;;;;4987818;28;20483;-57
2022/07/10 08:57:31;;;;;;;5.93;1.90;;;21.20;99.90;;;;;;4987743;28;20450;-57
2022/07/10 08:59:57;;;;;;;4.63;1.47;;;21.40;99.90;;;;;;4985316;28;20189;-57
2022/07/10 09:02:22;;;;;;;16.03;2.50;;;21.60;99.90;;;;;;4974727;28;20994;-57
2022/07/10 09:04:48;;;;;;;6.80;2.00;;;21.30;99.90;;;;;;4988740;28;20196;-56
2022/07/10 09:07:14;;;;;;;7.47;1.80;;;21.10;99.90;;;;;;4986229;28;20211;-57
2022/07/10 09:09:56;;;;;;;12.07;2.20;;;20.60;99.90;;;;;;4985493;28;20204;-58
2022/07/10 09:12:23;;;;;;;8.90;2.40;;;20.00;99.90;;;;;;4977135;28;20196;-57
2022/07/10 09:14:49;;;;;;;10.50;2.10;;;20.00;99.90;;;;;;4987249;28;20435;-57
2022/07/10 09:17:15;;;;;;;8.90;1.87;;;20.60;99.90;;;;;;4985664;28;20447;-56
2022/07/10 09:19:42;;;;;;;7.03;1.67;;;21.00;99.90;;;;;;4984362;28;20447;-56
2022/07/10 09:22:10;;;;;;;10.93;2.00;;;21.40;99.90;;;;;;4986231;28;20859;-56
2022/07/10 09:24:40;;;;;;;7.23;1.90;;;21.90;99.90;;;;;;4984460;28;20452;-57
2022/07/10 09:27:07;;;;;;;6.23;1.70;;;21.80;99.90;;;;;;4984834;28;20467;-57
2022/07/10 09:29:45;;;;;;;7.77;1.97;;;21.90;99.90;;;;;;4979690;28;20425;-59
2022/07/10 09:32:12;;;;;;;12.63;2.20;;;22.00;99.90;;;;;;4981703;28;20482;-57
2022/07/10 09:34:45;;;;;;;5.50;1.53;;;21.60;99.90;;;;;;4980724;28;21272;-57
2022/07/10 09:37:25;;;;;;;6.23;1.83;;;20.90;99.90;;;;;;4983670;28;20447;-57
2022/07/10 09:39:55;;;;;;;7.00;1.83;;;20.50;99.90;;;;;;4980050;28;20449;-58
2022/07/10 09:42:27;;;;;;;16.87;1.97;;;20.80;99.90;;;;;;4985717;28;20443;-56
2022/07/10 09:45:12;;;;;;;5.53;1.50;;;21.30;99.90;;;;;;4986858;28;20440;-57
2022/07/10 09:47:42;;;;;;;6.40;1.70;;;22.10;99.90;;;;;;4988825;28;20467;-55
2022/07/10 09:50:30;;;;;;;6.83;2.00;;;22.30;99.90;;;;;;4979758;28;20827;-56
2022/07/10 09:53:04;;;;;;;7.63;1.50;;;22.40;99.90;;;;;;4984249;28;20436;-57
2022/07/10 09:55:32;;;;;;;8.70;2.10;;;22.40;99.90;;;;;;4987101;28;20849;-57
2022/07/10 09:57:59;;;;;;;10.20;1.47;;;21.80;99.90;;;;;;4984822;28;20438;-57
2022/07/10 10:00:32;;;;;;;7.97;1.70;;;21.50;99.90;;;;;;4978769;28;20534;-56
2022/07/10 10:03:06;;;;;;;7.33;1.50;;;21.50;99.90;;;;;;4987055;28;20435;-57
2022/07/10 10:05:55;;;;;;;9.37;2.00;;;21.70;99.90;;;;;;4981840;28;20463;-59
2022/07/10 10:08:25;;;;;;;3.40;1.40;;;21.90;99.90;;;;;;4973786;28;20847;-57
2022/07/10 10:10:51;;;;;;;12.07;1.77;;;21.70;99.90;;;;;;4984459;28;20459;-56
2022/07/10 10:13:23;;;;;;;11.37;2.00;;;21.00;99.90;;;;;;4988027;28;20442;-57
2022/07/10 10:15:52;;;;;;;8.47;2.13;;;20.70;99.90;;;;;;4968379;28;21219;-55
2022/07/10 10:18:20;;;;;;;10.93;1.67;;;20.90;99.90;;;;;;4984018;28;20895;-56
2022/07/10 10:20:47;;;;;;;5.87;1.87;;;20.80;99.90;;;;;;4982241;28;20765;-56
2022/07/10 10:23:20;;;;;;;7.00;1.60;;;21.00;99.90;;;;;;4975148;28;20417;-57
2022/07/10 10:25:49;;;;;;;10.83;1.70;;;21.30;99.90;;;;;;4992704;28;20423;-55
2022/07/10 10:28:16;;;;;;;3.50;1.27;;;21.20;99.90;;;;;;4991922;28;20475;-57
2022/07/10 10:30:46;;;;;;;5.40;1.67;;;21.30;99.90;;;;;;4989234;28;20420;-57
2022/07/10 10:33:43;;;;;;;8.53;1.77;;;21.70;99.90;;;;;;4987587;28;20444;-57
2022/07/10 10:36:13;;;;;;;4.90;1.40;;;22.40;99.90;;;;;;4994594;28;20514;-57
2022/07/10 10:38:47;;;;;;;3.23;1.10;;;22.80;99.90;;;;;;4966393;28;20443;-57
2022/07/10 10:41:26;;;;;;;8.93;1.63;;;22.20;99.90;;;;;;4986242;28;20446;-57
2022/07/10 10:44:07;;;;;;;7.83;1.87;;;21.40;99.90;;;;;;4991531;28;20450;-56
2022/07/10 10:46:53;;;;;;;8.67;1.77;;;20.80;99.90;;;;;;4993274;28;20467;-56
2022/07/10 10:49:24;;;;;;;10.40;1.63;;;21.10;99.90;;;;;;4992859;28;20447;-57
2022/07/10 10:52:15;;;;;;;3.97;1.20;;;21.90;99.90;;;;;;4993714;28;20431;-57
2022/07/10 10:55:07;;;;;;;3.63;1.53;;;22.70;99.90;;;;;;4992476;28;20529;-61
2022/07/10 10:57:36;;;;;;;6.87;1.70;;;23.10;99.90;;;;;;4989610;28;20454;-57
2022/07/10 11:00:06;;;;;;;8.10;1.53;;;23.20;99.90;;;;;;4994271;28;20428;-57
2022/07/10 11:02:39;;;;;;;7.10;1.63;;;23.50;99.90;;;;;;4992145;28;20435;-57
2022/07/10 11:05:14;;;;;;;8.03;1.50;;;23.20;99.90;;;;;;4992357;28;20515;-56
2022/07/10 11:07:54;;;;;;;6.37;1.57;;;22.40;99.90;;;;;;4977102;28;20470;-57
2022/07/10 11:10:38;;;;;;;5.30;2.07;;;21.70;99.90;;;;;;4985478;28;20427;-57
2022/07/10 11:13:14;;;;;;;5.47;1.30;;;22.20;99.90;;;;;;4974354;28;20405;-57
2022/07/10 11:15:44;;;;;;;6.47;1.63;;;22.30;99.90;;;;;;4973954;28;20436;-56
2022/07/10 11:18:10;;;;;;;8.50;1.73;;;22.50;99.90;;;;;;4974039;28;20413;-56
2022/07/10 11:20:42;;;;;;;7.90;1.97;;;22.50;99.90;;;;;;4974302;28;20413;-57
2022/07/10 11:23:29;;;;;;;7.77;1.83;;;22.20;99.90;;;;;;4988216;28;21012;-56
2022/07/10 11:26:09;;;;;;;9.03;1.47;;;21.60;99.90;;;;;;4975141;28;20401;-56
2022/07/10 11:28:41;;;;;;;7.10;2.60;;;21.90;99.90;;;;;;4993328;28;20817;-57
2022/07/10 11:31:07;;;;;;;4.97;1.57;;;22.70;99.90;;;;;;4992562;28;20537;-56
2022/07/10 11:33:43;;;;;;;7.73;1.90;;;23.40;99.90;;;;;;4991377;28;21001;-55
2022/07/10 11:36:13;;;;;;;5.80;1.53;;;24.00;99.90;;;;;;4994743;28;20203;-56
2022/07/10 11:38:42;;;;;;;5.70;1.63;;;24.00;99.90;;;;;;4993296;28;20423;-56
2022/07/10 11:41:19;;;;;;;11.90;1.80;;;23.40;99.90;;;;;;4992404;28;20775;-56
2022/07/10 11:43:48;;;;;;;9.07;1.40;;;22.40;99.90;;;;;;4993293;28;20407;-57
2022/07/10 11:46:14;;;;;;;3.70;1.23;;;21.60;99.90;;;;;;4992569;28;21233;-58
2022/07/10 11:48:40;;;;;;;6.07;1.70;;;21.40;99.90;;;;;;4991728;28;20439;-55
2022/07/10 11:51:29;;;;;;;5.77;1.90;;;21.30;99.90;;;;;;4984456;28;20215;-57
2022/07/10 11:53:58;;;;;;;4.87;1.40;;;21.60;99.90;;;;;;4989285;28;20487;-57
2022/07/10 11:56:24;;;;;;;7.30;1.70;;;21.30;99.90;;;;;;4992205;28;20447;-57
2022/07/10 11:59:10;;;;;;;6.07;1.77;;;21.70;99.90;;;;;;4991024;28;20435;-57
2022/07/10 12:01:47;;;;;;;5.57;1.83;;;21.60;99.90;;;;;;4987718;28;20517;-55
2022/07/10 12:04:15;;;;;;;10.37;1.53;;;21.40;99.90;;;;;;4992995;28;20439;-57
2022/07/10 12:06:46;;;;;;;8.17;1.60;;;21.10;99.90;;;;;;4978962;28;21100;-57
2022/07/10 12:09:17;;;;;;;8.33;2.17;;;21.90;99.90;;;;;;4980502;28;20929;-57
2022/07/10 12:11:55;;;;;;;8.20;1.60;;;22.40;99.90;;;;;;4989435;28;20459;-55
2022/07/10 12:14:22;;;;;;;4.67;2.00;;;22.00;99.90;;;;;;4991964;28;20485;-57
2022/07/10 12:16:52;;;;;;;5.70;1.50;;;21.50;99.90;;;;;;4992132;28;20837;-60
2022/07/10 12:19:22;;;;;;;6.67;1.70;;;21.90;99.90;;;;;;4990789;28;20944;-57
2022/07/10 12:21:48;;;;;;;6.57;2.10;;;22.10;99.90;;;;;;4988483;28;21264;-56
2022/07/10 12:24:16;;;;;;;8.37;1.80;;;21.70;99.90;;;;;;4974438;28;20848;-56
2022/07/10 12:26:44;;;;;;;12.17;1.97;;;21.30;99.90;;;;;;4970905;28;20558;-56
2022/07/10 12:29:24;;;;;;;7.70;1.87;;;20.60;99.90;;;;;;4990683;28;20486;-54
2022/07/10 12:31:54;;;;;;;7.70;2.00;;;20.30;99.90;;;;;;4972984;28;20444;-59
2022/07/10 12:34:21;;;;;;;8.30;2.00;;;21.00;99.90;;;;;;4986136;28;20462;-54
2022/07/10 12:36:47;;;;;;;7.67;1.93;;;21.80;99.90;;;;;;4990884;28;20464;-57
2022/07/10 12:39:15;;;;;;;5.90;1.90;;;22.10;99.90;;;;;;4990807;28;20554;-57
2022/07/10 12:42:01;;;;;;;9.30;1.70;;;21.80;99.90;;;;;;4990577;28;20447;-56
2022/07/10 12:44:48;;;;;;;5.83;1.60;;;21.40;99.90;;;;;;4989811;28;20964;-56
2022/07/10 12:47:16;;;;;;;8.50;1.90;;;21.10;99.90;;;;;;4990001;28;20479;-56
2022/07/10 12:49:50;;;;;;;6.20;1.63;;;20.80;99.90;;;;;;4989870;28;20454;-56
2022/07/10 12:52:22;;;;;;;11.00;2.23;;;21.10;99.90;;;;;;4990345;28;20446;-53
2022/07/10 12:54:48;;;;;;;7.03;1.73;;;21.00;99.90;;;;;;4985993;28;20509;-56